Dryden Regional Airport
CYHD : now visible

Airfield :











YOU CAN JOIN US ON...

 
LOGIN :

Register | Disclaimer

   EN    FR    IT 

 









Legend :    VFR   Marginal VFR   IFR   Intensive IFR   Very Intensive IFR
Visi :
Ceiling :
>= 8 km
>= 3000ft
5 to 8 km
1000 to 3000 ft
1500m to 5 km
500 to 1000 ft
800 to 1500m
200 to 500 ft
< 800m
< 200 ft
Symbols :   Thunderstorms  Fog  Heavy snow  Heavy precipitations  Wind > 20 kt






- Airport Elevation : 1354 ft
- IATA code : YHD


CYHD - Dryden Regional

CURRENT METAR :
  • 280727Z AUTO 25007KT 1 1/2SM -SN OVC003 M02/M02 A2958 RMK ICG SLP041

EXPIRED METARs :
  • 280718Z AUTO 25007KT 1 1/2SM BR OVC003 M02/M02 A2957 RMK ICG SLP040
  • 280703Z AUTO 24007KT 1 3/4SM -SN OVC003 M02/M02 A2957 RMK ICG SLP037
  • 280618Z AUTO 24009KT 2 1/2SM -SN OVC005 M02/M03 A2956 RMK ICG SLP036
  • 280559Z AUTO 23009KT 5SM -SN OVC007 M02/M03 A2956 RMK SLP035
  • 280531Z AUTO 23007KT 9SM -SN OVC009 M02/M03 A2955 RMK SLP034
  • 280521Z AUTO 23006KT 9SM OVC009 M02/M03 A2955 RMK SLP034
  • 280500Z AUTO 23006KT 9SM -SN OVC011 M02/M03 A2956 RMK SLP035

TAF TAF CYHD
Valid from the 28 at 08:00 until the 28 at 20:00 UTC


280738Z 2808/2820 24012KT 6SM -SN OVC008
TEMPO 2808/2812 11/2SM -FZDZ -SN BR OVC003
FM281200 34010KT P6SM -SN OVC025
TEMPO 2812/2814 2SM -SN OVC015
FM281800 34012KT P6SM -SHSN BKN030 RMK FCST BASED ON AUTO OBS. NXT FCST BY 281400Z
CZWG FIR / North America



MET'MAP, your aeronautical weather chart ! - Copyright ORBIFLY December 2007 - Disclaimer

ORBIFLY MET'MAP TEAM :

Programming & Development : Alexandra Zaïnal
Concept & original design : Baudouin d'Aumeries
Assistance for programming : Marc-Olivier Méhu
Technical & hardware support : Manuel Goepfert

Contact : metmap@orbifly.com




SOURCES & CREDITS :

   NOAA       Earth
Advisory